Time;durP1;ratioP1;P1;durP2;ratioP2;P2;SDS_P1;SDS_P2;PMS_P1;PMS_P2;Temp;Humidity;BMP_temperature;BMP_pressure;BME280_temperature;BME280_humidity;BME280_pressure;Samples;Min_cycle;Max_cycle;Signal;HPM_P1;HPM_P2
2021/04/02 00:00:34;;;;;;;28.83;25.93;;;16.40;56.30;;;;;;5041261;28;20216;-85
2021/04/02 00:02:59;;;;;;;29.43;25.37;;;16.30;56.40;;;;;;5046279;28;20236;-85
2021/04/02 00:05:26;;;;;;;28.03;24.27;;;16.20;56.50;;;;;;5045404;28;20188;-84
2021/04/02 00:07:52;;;;;;;27.13;24.17;;;16.10;56.80;;;;;;5042554;28;20723;-85
2021/04/02 00:10:23;;;;;;;28.57;23.30;;;16.20;56.60;;;;;;5055697;28;20238;-84
2021/04/02 00:12:49;;;;;;;23.70;20.90;;;16.20;56.60;;;;;;5024769;28;20272;-84
2021/04/02 00:15:20;;;;;;;22.20;19.80;;;16.30;56.20;;;;;;5039468;28;20626;-84
2021/04/02 00:17:47;;;;;;;21.47;18.47;;;16.20;56.00;;;;;;5022735;28;20548;-85
2021/04/02 00:20:17;;;;;;;19.00;16.17;;;16.10;56.70;;;;;;5039177;28;20196;-84
2021/04/02 00:22:44;;;;;;;20.37;16.13;;;15.90;56.20;;;;;;5039695;28;20573;-84
2021/04/02 00:25:11;;;;;;;17.23;14.27;;;15.80;56.40;;;;;;5039071;28;20187;-84
2021/04/02 00:27:38;;;;;;;21.77;15.13;;;15.80;56.80;;;;;;5038291;28;20192;-84
2021/04/02 00:30:15;;;;;;;17.37;14.43;;;15.70;57.00;;;;;;5038261;28;20201;-84
2021/04/02 00:32:42;;;;;;;16.67;14.93;;;15.70;57.10;;;;;;5037969;28;20179;-84
2021/04/02 00:35:10;;;;;;;16.07;14.20;;;15.60;57.30;;;;;;5027429;28;20655;-84
2021/04/02 00:37:36;;;;;;;18.80;14.53;;;15.50;57.80;;;;;;5019075;28;20184;-84
2021/04/02 00:40:04;;;;;;;18.50;14.33;;;15.50;57.90;;;;;;5019766;28;20199;-85
2021/04/02 00:42:29;;;;;;;16.97;14.97;;;15.70;57.60;;;;;;5020189;28;20220;-84
2021/04/02 00:44:56;;;;;;;16.13;14.43;;;15.50;57.70;;;;;;5038543;28;20697;-86
2021/04/02 00:47:21;;;;;;;17.07;14.40;;;15.60;57.40;;;;;;5042745;28;20187;-84
2021/04/02 00:49:47;;;;;;;14.27;12.57;;;15.60;57.00;;;;;;5038940;28;20284;-84
2021/04/02 00:52:13;;;;;;;17.07;12.90;;;15.40;57.60;;;;;;5041611;28;20270;-84
2021/04/02 00:54:38;;;;;;;15.43;11.70;;;15.30;57.70;;;;;;5044245;28;20209;-84
2021/04/02 00:57:05;;;;;;;16.03;10.83;;;15.20;57.80;;;;;;5046802;28;20194;-84
2021/04/02 00:59:31;;;;;;;13.23;10.57;;;15.10;58.00;;;;;;5048053;28;20173;-84
2021/04/02 01:01:56;;;;;;;14.00;10.77;;;15.00;58.30;;;;;;5041990;28;20674;-84
2021/04/02 01:04:22;;;;;;;11.37;10.23;;;15.00;58.10;;;;;;5041985;28;20197;-83
2021/04/02 01:06:48;;;;;;;12.03;9.47;;;15.10;58.10;;;;;;5045698;28;20185;-85
2021/04/02 01:09:14;;;;;;;11.27;10.03;;;15.10;58.30;;;;;;5040763;28;20225;-84
2021/04/02 01:11:40;;;;;;;10.63;9.57;;;15.20;57.60;;;;;;5055751;28;20225;-86
2021/04/02 01:14:05;;;;;;;11.10;9.20;;;15.10;58.00;;;;;;5054594;28;20217;-85
2021/04/02 01:16:33;;;;;;;11.30;8.77;;;15.00;58.00;;;;;;5055008;28;20189;-84
2021/04/02 01:19:28;;;;;;;11.80;8.50;;;14.80;58.20;;;;;;5056536;28;20184;-86
2021/04/02 01:22:03;;;;;;;11.83;8.57;;;14.60;59.00;;;;;;5059735;28;20163;-87
2021/04/02 01:24:53;;;;;;;10.37;7.97;;;14.60;58.80;;;;;;5041968;28;20197;-84
2021/04/02 01:27:33;;;;;;;8.63;7.67;;;14.50;58.90;;;;;;5047566;28;20630;-83
2021/04/02 01:30:09;;;;;;;7.90;7.10;;;14.40;58.80;;;;;;5041317;28;20193;-84
2021/04/02 01:32:39;;;;;;;10.93;6.97;;;14.20;58.90;;;;;;5041005;28;20267;-83
2021/04/02 01:35:19;;;;;;;7.60;5.83;;;14.00;59.30;;;;;;5040750;28;20238;-83
2021/04/02 01:37:53;;;;;;;6.57;5.80;;;13.90;58.90;;;;;;5041370;28;20183;-84
2021/04/02 01:40:23;;;;;;;8.43;6.43;;;14.00;58.60;;;;;;5042173;28;20288;-85
2021/04/02 01:42:49;;;;;;;6.73;5.67;;;14.00;57.70;;;;;;5042509;28;20233;-84
2021/04/02 01:45:17;;;;;;;8.40;5.93;;;13.90;58.20;;;;;;5040721;28;20183;-83
2021/04/02 01:47:43;;;;;;;12.00;5.73;;;13.80;57.60;;;;;;5040495;28;20261;-84
2021/04/02 01:50:14;;;;;;;6.17;5.57;;;13.80;57.40;;;;;;5040606;28;20197;-84
2021/04/02 01:52:41;;;;;;;8.50;6.00;;;13.80;56.90;;;;;;5042517;28;20224;-83
2021/04/02 01:55:09;;;;;;;6.30;5.37;;;13.70;57.10;;;;;;5046288;28;20234;-83
2021/04/02 01:57:36;;;;;;;10.03;5.40;;;13.60;57.10;;;;;;5045644;28;20206;-84
2021/04/02 02:00:11;;;;;;;6.27;5.27;;;13.60;57.60;;;;;;5032461;28;656482;-84
2021/04/02 02:02:38;;;;;;;6.77;6.00;;;13.50;57.20;;;;;;5045140;28;20186;-83
2021/04/02 02:05:07;;;;;;;9.20;5.77;;;13.30;56.80;;;;;;5035370;28;20177;-84
2021/04/02 02:07:35;;;;;;;6.33;5.13;;;13.10;57.70;;;;;;5030495;28;20659;-84
2021/04/02 02:10:01;;;;;;;7.67;5.50;;;13.00;57.70;;;;;;5026153;28;20217;-83
2021/04/02 02:12:27;;;;;;;5.57;5.00;;;13.00;56.30;;;;;;5051424;28;20186;-83
2021/04/02 02:14:55;;;;;;;5.90;5.37;;;13.00;56.70;;;;;;5042014;28;20204;-83
2021/04/02 02:17:24;;;;;;;7.50;4.77;;;13.00;56.70;;;;;;5047287;28;20181;-83
2021/04/02 02:19:51;;;;;;;8.07;5.37;;;13.00;55.90;;;;;;5044794;28;20232;-84
2021/04/02 02:22:18;;;;;;;5.77;5.10;;;12.70;56.30;;;;;;5045035;28;20188;-83
2021/04/02 02:24:46;;;;;;;7.23;4.50;;;12.60;56.10;;;;;;5054154;28;20263;-83
2021/04/02 02:27:11;;;;;;;6.37;4.30;;;12.60;56.20;;;;;;5043781;28;20195;-85
2021/04/02 02:29:38;;;;;;;7.37;4.90;;;12.60;55.00;;;;;;5060125;28;20575;-83
2021/04/02 02:32:05;;;;;;;6.90;5.07;;;12.50;54.20;;;;;;5042044;28;20575;-85
2021/04/02 02:34:31;;;;;;;6.30;4.37;;;12.40;54.10;;;;;;5042322;28;20201;-84
2021/04/02 02:36:59;;;;;;;7.30;4.63;;;12.30;53.50;;;;;;5042325;28;20256;-83
2021/04/02 02:39:25;;;;;;;6.83;4.87;;;12.10;54.30;;;;;;5050165;28;20172;-84
2021/04/02 02:41:52;;;;;;;6.40;4.70;;;12.00;54.00;;;;;;5053586;28;20242;-83
2021/04/02 02:44:18;;;;;;;5.23;4.23;;;11.70;54.50;;;;;;5062244;28;20188;-85
2021/04/02 02:46:43;;;;;;;6.30;4.07;;;11.80;54.30;;;;;;5052821;28;20640;-83
2021/04/02 02:49:15;;;;;;;7.00;4.67;;;11.80;53.70;;;;;;5042391;28;20781;-84
2021/04/02 02:51:43;;;;;;;10.13;4.40;;;11.90;53.60;;;;;;5041072;28;20208;-84
2021/04/02 02:54:14;;;;;;;6.67;4.67;;;11.90;53.70;;;;;;5041080;28;20266;-84
2021/04/02 02:56:42;;;;;;;4.83;4.33;;;12.00;52.70;;;;;;5042635;28;20169;-83
2021/04/02 02:59:13;;;;;;;9.60;5.37;;;11.90;52.00;;;;;;5044244;28;20188;-83
2021/04/02 03:01:39;;;;;;;7.57;4.33;;;11.90;51.60;;;;;;5042314;28;20219;-84
2021/04/02 03:04:07;;;;;;;8.33;4.07;;;11.70;51.60;;;;;;5048571;28;20195;-83
2021/04/02 03:06:37;;;;;;;6.10;4.40;;;11.70;51.60;;;;;;5063127;28;20188;-84
2021/04/02 03:09:05;;;;;;;7.37;4.43;;;11.60;51.60;;;;;;5063377;28;20172;-84
2021/04/02 03:11:32;;;;;;;5.63;4.40;;;11.70;51.50;;;;;;5064234;28;20237;-84
2021/04/02 03:13:59;;;;;;;9.80;4.10;;;11.80;53.60;;;;;;5061667;28;20201;-83
2021/04/02 03:16:26;;;;;;;6.60;4.53;;;12.00;52.90;;;;;;5064690;28;20209;-83
2021/04/02 03:18:55;;;;;;;6.67;4.70;;;12.10;50.00;;;;;;5027534;28;20184;-84
2021/04/02 03:21:21;;;;;;;7.93;4.53;;;12.10;51.00;;;;;;5062148;28;20200;-84
2021/04/02 03:23:47;;;;;;;7.03;4.17;;;12.00;50.10;;;;;;5062991;28;20192;-84
2021/04/02 03:26:15;;;;;;;6.30;4.10;;;11.70;51.80;;;;;;5040943;28;20204;-83
2021/04/02 03:28:43;;;;;;;7.13;4.80;;;11.90;52.20;;;;;;5040154;28;20648;-83
2021/04/02 03:31:11;;;;;;;6.77;4.73;;;11.60;51.20;;;;;;5040291;28;20220;-85
2021/04/02 03:33:41;;;;;;;5.83;4.57;;;11.50;52.60;;;;;;5041695;28;20212;-83
2021/04/02 03:36:11;;;;;;;5.60;4.47;;;11.50;52.20;;;;;;5022847;28;20205;-84
2021/04/02 03:38:39;;;;;;;6.13;4.90;;;11.70;53.60;;;;;;5023631;28;20192;-86
2021/04/02 03:41:09;;;;;;;6.67;4.93;;;11.70;52.30;;;;;;5021648;28;20213;-86
2021/04/02 03:43:37;;;;;;;9.77;5.47;;;11.80;52.50;;;;;;5042396;28;20188;-85
2021/04/02 03:46:04;;;;;;;7.07;5.93;;;11.60;52.30;;;;;;5047007;28;20208;-85
2021/04/02 03:48:32;;;;;;;5.97;5.17;;;11.40;53.30;;;;;;5024935;28;20189;-85
2021/04/02 03:51:00;;;;;;;7.70;5.60;;;11.30;53.70;;;;;;5042740;28;20208;-86
2021/04/02 03:53:31;;;;;;;6.60;5.27;;;11.30;53.80;;;;;;5044753;28;20209;-84
2021/04/02 03:55:59;;;;;;;9.73;5.40;;;11.10;54.80;;;;;;5042886;28;20185;-86
2021/04/02 03:58:26;;;;;;;7.30;5.50;;;10.90;54.80;;;;;;5041940;28;20169;-86
2021/04/02 04:00:58;;;;;;;6.60;4.90;;;10.50;56.20;;;;;;5041760;28;20212;-86
2021/04/02 04:03:24;;;;;;;8.00;5.33;;;10.60;56.70;;;;;;5054368;28;20666;-85
2021/04/02 04:05:54;;;;;;;9.53;5.23;;;10.60;56.30;;;;;;5065153;28;20179;-85
2021/04/02 04:08:21;;;;;;;7.03;5.37;;;10.60;55.80;;;;;;5051375;28;20184;-85
2021/04/02 04:10:49;;;;;;;5.97;4.80;;;10.60;56.90;;;;;;5064752;28;20200;-86
2021/04/02 04:13:18;;;;;;;7.60;5.63;;;10.50;57.40;;;;;;5046476;28;20212;-85
2021/04/02 04:15:45;;;;;;;7.20;5.13;;;10.30;57.50;;;;;;5050961;28;20161;-83
2021/04/02 04:18:13;;;;;;;7.50;4.63;;;10.30;57.70;;;;;;5048773;28;20199;-86
2021/04/02 04:20:41;;;;;;;5.13;4.63;;;10.50;59.60;;;;;;5050087;28;20220;-85
2021/04/02 04:23:07;;;;;;;6.20;4.93;;;10.80;57.30;;;;;;5045480;28;20307;-85
2021/04/02 04:25:35;;;;;;;6.93;5.37;;;11.00;55.40;;;;;;5043579;28;20208;-87
2021/04/02 04:28:02;;;;;;;6.60;5.20;;;10.70;55.70;;;;;;5045914;28;20184;-86
2021/04/02 04:30:30;;;;;;;8.27;5.50;;;10.50;57.30;;;;;;5023772;28;20205;-86
2021/04/02 04:32:58;;;;;;;5.70;5.10;;;10.60;57.20;;;;;;5022073;28;20201;-86
2021/04/02 04:35:24;;;;;;;6.67;5.17;;;10.30;57.20;;;;;;5033037;28;20184;-86
2021/04/02 04:37:52;;;;;;;6.93;4.50;;;10.40;60.00;;;;;;5042434;28;20177;-86
2021/04/02 04:40:20;;;;;;;5.63;5.13;;;10.60;57.50;;;;;;5028110;28;20197;-86
2021/04/02 04:42:47;;;;;;;8.93;5.73;;;10.60;58.50;;;;;;5042084;28;20540;-85
2021/04/02 04:45:19;;;;;;;6.27;5.60;;;10.70;57.00;;;;;;5046983;28;20591;-87
2021/04/02 04:47:45;;;;;;;6.47;5.63;;;10.60;57.70;;;;;;5045177;28;20180;-86
2021/04/02 04:50:11;;;;;;;9.17;5.67;;;10.50;59.00;;;;;;5056037;28;20203;-87
2021/04/02 04:53:07;;;;;;;6.43;5.20;;;10.40;59.10;;;;;;5058613;28;20200;-85
2021/04/02 04:55:36;;;;;;;9.83;6.40;;;10.50;59.50;;;;;;5043336;28;20245;-88
2021/04/02 04:58:03;;;;;;;7.73;6.20;;;10.60;58.50;;;;;;5046861;28;20208;-87
2021/04/02 05:00:31;;;;;;;7.00;6.40;;;10.40;60.30;;;;;;5033116;28;20675;-87
2021/04/02 05:02:57;;;;;;;6.83;6.23;;;10.40;58.70;;;;;;5024299;28;20182;-86
2021/04/02 05:05:32;;;;;;;7.67;6.03;;;10.30;59.30;;;;;;5033020;28;20652;-86
2021/04/02 05:08:01;;;;;;;7.93;6.57;;;10.40;60.00;;;;;;5033848;28;20180;-86
2021/04/02 05:10:29;;;;;;;6.53;5.93;;;10.40;58.90;;;;;;5027277;28;20680;-87
2021/04/02 05:12:56;;;;;;;7.77;6.70;;;10.30;60.40;;;;;;5019570;28;20247;-87
2021/04/02 05:15:23;;;;;;;10.60;6.83;;;10.30;60.20;;;;;;5033878;28;20208;-86
2021/04/02 05:17:50;;;;;;;7.83;6.50;;;10.30;59.50;;;;;;5042706;28;20188;-86
2021/04/02 05:20:17;;;;;;;7.97;6.53;;;10.10;60.50;;;;;;5032827;28;20209;-86
2021/04/02 05:22:43;;;;;;;7.07;6.37;;;10.10;61.90;;;;;;5031532;28;20193;-86
2021/04/02 05:25:09;;;;;;;7.70;6.97;;;10.10;61.30;;;;;;5033254;28;20177;-86
2021/04/02 05:27:36;;;;;;;8.33;7.43;;;10.30;61.10;;;;;;5014826;28;20556;-86
2021/04/02 05:30:03;;;;;;;8.73;7.10;;;10.30;60.40;;;;;;5032601;28;20193;-86
2021/04/02 05:32:29;;;;;;;10.17;6.63;;;10.40;59.70;;;;;;5017966;28;20185;-86
2021/04/02 05:34:54;;;;;;;6.90;6.30;;;10.40;60.60;;;;;;5025117;28;20297;-86
2021/04/02 05:37:20;;;;;;;7.53;6.73;;;10.50;60.50;;;;;;5015751;28;20217;-87
2021/04/02 05:39:46;;;;;;;8.33;6.70;;;10.50;60.30;;;;;;5018377;28;20193;-87
2021/04/02 05:42:16;;;;;;;8.87;6.93;;;10.50;59.70;;;;;;5017819;28;20196;-87
2021/04/02 05:44:46;;;;;;;9.10;6.37;;;10.40;60.90;;;;;;5026574;28;20183;-86
2021/04/02 05:47:14;;;;;;;9.97;6.80;;;10.70;61.00;;;;;;5038140;28;20271;-86
2021/04/02 05:49:40;;;;;;;7.77;7.07;;;10.80;59.50;;;;;;5040032;28;20181;-85
2021/04/02 05:52:06;;;;;;;11.13;7.40;;;10.90;58.70;;;;;;5043077;28;20178;-85
2021/04/02 05:54:44;;;;;;;8.93;7.40;;;10.60;59.20;;;;;;5042893;28;20207;-86
2021/04/02 05:57:10;;;;;;;7.27;6.67;;;10.40;60.50;;;;;;5036547;28;20238;-86
2021/04/02 05:59:41;;;;;;;8.67;7.77;;;10.50;60.60;;;;;;5038873;28;20665;-86
2021/04/02 06:02:08;;;;;;;10.67;7.30;;;10.40;60.30;;;;;;5041507;28;20552;-85
2021/04/02 06:04:36;;;;;;;10.30;6.93;;;10.10;62.20;;;;;;5041826;28;20735;-84
2021/04/02 06:07:01;;;;;;;13.07;8.23;;;10.20;62.30;;;;;;5038854;28;20189;-86
2021/04/02 06:09:28;;;;;;;8.47;7.70;;;10.00;62.10;;;;;;5038791;28;20180;-87
2021/04/02 06:11:53;;;;;;;8.60;7.80;;;10.00;62.60;;;;;;5040818;28;20185;-85
2021/04/02 06:14:19;;;;;;;8.93;8.03;;;9.90;63.30;;;;;;5007338;28;20217;-86
2021/04/02 06:16:52;;;;;;;10.70;8.73;;;10.00;63.40;;;;;;5040216;28;20591;-85
2021/04/02 06:19:18;;;;;;;9.07;8.10;;;9.80;63.10;;;;;;5039101;28;20177;-85
2021/04/02 06:21:52;;;;;;;10.07;7.90;;;9.80;63.70;;;;;;5040308;28;20197;-85
2021/04/02 06:24:35;;;;;;;15.37;8.80;;;9.70;64.50;;;;;;5039716;28;20660;-85
2021/04/02 06:27:03;;;;;;;10.07;9.10;;;9.40;65.60;;;;;;5037801;28;20168;-85
2021/04/02 06:29:30;;;;;;;8.77;7.87;;;9.30;66.10;;;;;;5038263;28;20292;-84
2021/04/02 06:31:56;;;;;;;11.13;9.40;;;9.30;67.20;;;;;;5039294;28;20704;-84
2021/04/02 06:34:26;;;;;;;10.07;9.03;;;9.40;65.70;;;;;;5039902;28;20216;-85
2021/04/02 06:36:59;;;;;;;10.33;9.33;;;9.50;65.80;;;;;;5037812;28;20224;-85
2021/04/02 06:39:30;;;;;;;12.43;9.80;;;9.50;65.80;;;;;;5039975;28;20200;-84
2021/04/02 06:41:58;;;;;;;10.80;9.70;;;9.60;65.90;;;;;;5041991;28;20172;-84
2021/04/02 06:44:27;;;;;;;10.50;8.67;;;9.40;65.90;;;;;;5040207;28;20184;-85
2021/04/02 06:46:56;;;;;;;12.47;9.70;;;9.40;66.70;;;;;;5038087;28;20192;-84
2021/04/02 06:49:22;;;;;;;12.23;9.33;;;9.50;65.70;;;;;;5048153;28;20177;-87
2021/04/02 06:51:52;;;;;;;12.70;9.40;;;9.50;65.80;;;;;;5039423;28;20279;-85
2021/04/02 06:54:23;;;;;;;11.33;9.30;;;9.40;66.50;;;;;;5029501;28;20232;-85
2021/04/02 06:57:03;;;;;;;10.03;9.03;;;9.60;66.40;;;;;;5037536;28;20209;-85
2021/04/02 06:59:32;;;;;;;15.63;10.03;;;9.70;65.70;;;;;;5037566;28;20183;-84
2021/04/02 07:02:00;;;;;;;10.50;9.40;;;9.90;65.00;;;;;;5039454;28;20223;-84
2021/04/02 07:04:26;;;;;;;9.97;9.07;;;9.90;64.10;;;;;;5038380;28;20205;-85
2021/04/02 07:06:53;;;;;;;11.00;9.13;;;9.80;63.80;;;;;;5038992;28;20525;-83
2021/04/02 07:09:20;;;;;;;10.57;9.47;;;9.60;63.20;;;;;;5038649;28;20208;-84
2021/04/02 07:11:49;;;;;;;11.00;9.70;;;9.50;64.60;;;;;;5035290;28;20215;-84
2021/04/02 07:14:17;;;;;;;13.20;9.63;;;9.40;64.30;;;;;;5039118;28;20234;-86
2021/04/02 07:16:43;;;;;;;11.70;8.83;;;9.40;64.30;;;;;;5036376;28;20264;-85
2021/04/02 07:19:09;;;;;;;10.57;9.40;;;9.60;64.20;;;;;;5041776;28;20188;-84
2021/04/02 07:21:35;;;;;;;9.97;8.93;;;9.80;63.20;;;;;;5041686;28;20270;-84
2021/04/02 07:24:02;;;;;;;10.90;9.77;;;10.00;62.80;;;;;;5037059;28;20275;-84
2021/04/02 07:26:28;;;;;;;10.53;9.53;;;10.10;61.60;;;;;;5035369;28;20189;-84
2021/04/02 07:28:54;;;;;;;10.03;9.10;;;10.10;61.90;;;;;;5043723;28;20196;-84
2021/04/02 07:31:22;;;;;;;10.27;8.77;;;9.90;62.30;;;;;;5043111;28;20328;-85
2021/04/02 07:33:49;;;;;;;11.23;9.27;;;9.90;63.00;;;;;;5036281;28;20213;-84
2021/04/02 07:36:17;;;;;;;10.93;9.40;;;9.80;62.50;;;;;;5018097;28;20180;-83
2021/04/02 07:38:53;;;;;;;10.73;9.73;;;9.80;63.20;;;;;;5031243;28;20548;-84
2021/04/02 07:41:21;;;;;;;10.30;9.20;;;9.90;63.50;;;;;;5033914;28;20198;-84
2021/04/02 07:43:49;;;;;;;10.73;8.83;;;10.10;63.10;;;;;;5034682;28;20280;-84
2021/04/02 07:46:17;;;;;;;12.60;9.27;;;10.20;61.90;;;;;;5035826;28;20267;-85
2021/04/02 07:48:48;;;;;;;8.53;7.73;;;10.20;61.70;;;;;;5035290;28;20602;-84
2021/04/02 07:51:14;;;;;;;13.20;8.70;;;10.10;60.80;;;;;;5038245;28;20215;-85
2021/04/02 07:53:43;;;;;;;9.10;7.93;;;10.10;61.20;;;;;;5035787;28;20417;-85
2021/04/02 07:56:14;;;;;;;9.77;8.77;;;10.30;61.00;;;;;;5037464;28;20184;-85
2021/04/02 07:58:52;;;;;;;8.80;7.90;;;10.30;60.60;;;;;;5038827;28;20523;-85
2021/04/02 08:01:22;;;;;;;10.33;8.90;;;10.40;60.50;;;;;;5039273;28;20220;-84
2021/04/02 08:03:50;;;;;;;10.37;9.33;;;10.70;59.70;;;;;;5036000;28;20173;-84
2021/04/02 08:06:37;;;;;;;11.33;9.03;;;10.70;58.80;;;;;;5022267;28;20307;-85
2021/04/02 08:09:07;;;;;;;9.97;9.00;;;10.60;59.00;;;;;;5024904;28;20189;-84
2021/04/02 08:11:44;;;;;;;10.70;9.60;;;10.60;59.30;;;;;;5025541;28;20751;-84
2021/04/02 08:14:12;;;;;;;10.63;8.80;;;10.70;58.70;;;;;;5022819;28;20301;-84
2021/04/02 08:16:54;;;;;;;12.23;9.10;;;10.70;59.30;;;;;;5026698;28;20188;-84
2021/04/02 08:19:30;;;;;;;66.70;47.43;;;10.90;58.90;;;;;;4992054;28;20280;-84
2021/04/02 08:21:57;;;;;;;18.67;14.13;;;11.10;58.90;;;;;;5027557;28;20862;-84
2021/04/02 08:24:26;;;;;;;12.70;10.60;;;11.20;56.90;;;;;;5025008;28;20193;-87
2021/04/02 08:26:53;;;;;;;13.63;10.13;;;11.20;57.10;;;;;;5023809;28;20711;-83
2021/04/02 08:29:20;;;;;;;10.13;9.10;;;11.30;57.20;;;;;;5027552;28;20275;-84
2021/04/02 08:31:53;;;;;;;10.37;8.97;;;11.20;56.70;;;;;;5026104;28;20220;-84
2021/04/02 08:34:22;;;;;;;9.83;8.93;;;11.10;57.70;;;;;;5025233;28;20219;-84
2021/04/02 08:36:50;;;;;;;9.60;8.70;;;11.20;57.40;;;;;;5026565;28;20756;-84
2021/04/02 08:39:18;;;;;;;10.60;9.60;;;11.40;56.30;;;;;;5026495;28;21766;-84
2021/04/02 08:41:45;;;;;;;10.23;9.40;;;11.40;56.20;;;;;;5026826;28;20216;-86
2021/04/02 08:44:11;;;;;;;9.93;9.03;;;11.60;55.80;;;;;;5026195;28;20182;-85
2021/04/02 08:46:39;;;;;;;10.47;9.47;;;11.50;55.90;;;;;;5026717;28;20193;-84
2021/04/02 08:49:07;;;;;;;10.90;9.80;;;11.60;56.10;;;;;;5024193;28;20284;-85
2021/04/02 08:51:34;;;;;;;12.83;11.53;;;11.70;55.70;;;;;;5026247;28;20280;-87
2021/04/02 08:54:00;;;;;;;10.20;9.30;;;11.80;55.20;;;;;;5010964;28;20250;-84
2021/04/02 08:56:29;;;;;;;11.07;10.00;;;11.90;55.30;;;;;;5008345;28;20185;-86
2021/04/02 08:58:54;;;;;;;10.67;9.67;;;12.00;55.10;;;;;;5027174;28;20189;-83
2021/04/02 09:01:21;;;;;;;10.10;9.10;;;12.20;54.10;;;;;;5026318;28;20225;-84
2021/04/02 09:03:48;;;;;;;10.70;9.70;;;12.40;54.00;;;;;;5011812;28;20694;-84
2021/04/02 09:06:14;;;;;;;11.20;9.70;;;12.10;54.30;;;;;;5026915;28;20205;-85
2021/04/02 09:08:40;;;;;;;11.27;10.17;;;12.20;54.20;;;;;;5027771;28;20283;-85
2021/04/02 09:11:10;;;;;;;10.70;9.67;;;12.30;53.90;;;;;;5026574;28;20264;-84
2021/04/02 09:13:42;;;;;;;10.37;9.30;;;12.70;53.00;;;;;;5030363;28;20625;-84
2021/04/02 09:16:19;;;;;;;10.13;9.13;;;13.10;52.30;;;;;;5037874;28;20199;-84
2021/04/02 09:18:53;;;;;;;10.40;9.50;;;13.00;51.70;;;;;;5033325;28;20648;-84
2021/04/02 09:21:20;;;;;;;10.10;9.13;;;12.90;51.40;;;;;;5027374;28;20212;-84
2021/04/02 09:23:48;;;;;;;10.73;9.73;;;13.00;52.20;;;;;;5033215;28;20187;-84
2021/04/02 09:26:14;;;;;;;9.57;8.77;;;13.10;51.40;;;;;;5032127;28;20189;-84
2021/04/02 09:28:40;;;;;;;10.60;9.50;;;12.80;52.20;;;;;;5028832;28;20204;-83
2021/04/02 09:31:22;;;;;;;10.63;9.63;;;12.70;52.00;;;;;;5028632;28;20213;-84
2021/04/02 09:33:51;;;;;;;10.57;9.57;;;12.70;52.70;;;;;;5028631;28;20745;-84
2021/04/02 09:36:18;;;;;;;10.80;9.80;;;12.60;52.00;;;;;;5031272;28;20181;-85
2021/04/02 09:38:44;;;;;;;10.70;9.60;;;12.60;52.10;;;;;;5029036;28;20697;-84
2021/04/02 09:41:15;;;;;;;11.17;10.03;;;12.50;52.30;;;;;;5031752;28;20554;-83
2021/04/02 09:43:46;;;;;;;14.20;12.83;;;12.70;52.30;;;;;;5011078;28;20224;-84
2021/04/02 09:46:14;;;;;;;11.10;9.97;;;12.70;52.10;;;;;;5036254;28;20506;-84
2021/04/02 09:48:40;;;;;;;10.23;9.20;;;12.90;52.30;;;;;;5032380;28;20185;-83
2021/04/02 09:51:06;;;;;;;11.10;10.10;;;13.00;50.90;;;;;;5010567;28;20232;-84
2021/04/02 09:53:32;;;;;;;10.30;9.40;;;13.40;50.00;;;;;;5029292;28;20232;-84
2021/04/02 09:55:58;;;;;;;10.33;9.33;;;13.70;48.20;;;;;;5029954;28;20193;-84
2021/04/02 09:58:24;;;;;;;10.13;9.23;;;13.90;46.40;;;;;;5027662;28;20690;-84
2021/04/02 10:00:50;;;;;;;9.97;9.17;;;14.00;46.40;;;;;;5034260;28;20218;-83
2021/04/02 10:03:16;;;;;;;9.60;8.80;;;13.90;46.20;;;;;;5038629;28;20217;-85
2021/04/02 10:05:42;;;;;;;10.00;9.03;;;13.80;46.70;;;;;;5035332;28;20192;-85
2021/04/02 10:08:08;;;;;;;10.03;9.10;;;13.70;45.40;;;;;;5028756;28;20268;-84
2021/04/02 10:10:34;;;;;;;9.43;8.70;;;13.70;46.40;;;;;;5034582;28;20284;-82
2021/04/02 10:13:01;;;;;;;11.37;10.27;;;13.80;46.80;;;;;;5035638;28;20190;-84
2021/04/02 10:15:27;;;;;;;11.00;9.30;;;13.80;47.40;;;;;;5033240;28;20237;-83
2021/04/02 10:17:52;;;;;;;10.70;9.70;;;14.30;46.30;;;;;;5027045;28;20198;-83
2021/04/02 10:20:19;;;;;;;10.57;9.67;;;14.30;46.10;;;;;;5016303;28;20224;-84
2021/04/02 10:22:44;;;;;;;10.83;9.83;;;14.40;45.60;;;;;;5029166;28;20760;-84
2021/04/02 10:25:10;;;;;;;10.30;9.47;;;14.50;44.60;;;;;;5033155;28;20207;-84
2021/04/02 10:27:36;;;;;;;10.33;9.47;;;14.50;44.80;;;;;;5029549;28;20675;-84
2021/04/02 10:30:02;;;;;;;10.03;9.20;;;14.70;42.90;;;;;;5038980;28;20262;-83
2021/04/02 10:32:28;;;;;;;9.53;8.73;;;14.80;42.20;;;;;;5015428;28;20192;-83
2021/04/02 10:34:54;;;;;;;9.73;8.87;;;15.20;42.90;;;;;;5039626;28;20283;-83
2021/04/02 10:37:20;;;;;;;9.67;8.73;;;15.20;41.40;;;;;;5028120;28;20190;-83
2021/04/02 10:39:45;;;;;;;10.00;9.00;;;15.40;41.60;;;;;;5032865;28;20212;-84
2021/04/02 10:42:11;;;;;;;13.30;9.00;;;15.40;40.90;;;;;;5032030;28;20645;-84
2021/04/02 10:44:37;;;;;;;9.73;8.93;;;15.60;40.40;;;;;;5034001;28;20192;-84
2021/04/02 10:47:03;;;;;;;9.67;8.40;;;15.50;40.70;;;;;;5034541;28;20620;-83
2021/04/02 10:49:29;;;;;;;9.83;9.03;;;15.50;41.30;;;;;;5049502;28;20667;-84
2021/04/02 10:51:55;;;;;;;9.93;9.13;;;15.50;40.70;;;;;;5033818;28;20185;-84
2021/04/02 10:54:20;;;;;;;10.17;9.10;;;15.70;40.90;;;;;;5028892;28;20569;-82
2021/04/02 10:56:46;;;;;;;10.03;9.03;;;15.90;39.80;;;;;;5035655;28;20217;-84
2021/04/02 10:59:13;;;;;;;9.80;8.90;;;16.20;39.00;;;;;;5035322;28;20664;-83
2021/04/02 11:01:39;;;;;;;10.63;9.73;;;16.20;38.90;;;;;;5027312;28;20425;-83
2021/04/02 11:04:04;;;;;;;10.10;9.10;;;16.30;38.30;;;;;;5013068;28;20217;-83
2021/04/02 11:06:30;;;;;;;8.93;8.23;;;16.10;38.90;;;;;;5029176;28;20537;-84
2021/04/02 11:08:56;;;;;;;10.37;9.27;;;16.00;38.80;;;;;;5014380;28;20294;-82
2021/04/02 11:11:21;;;;;;;10.37;9.50;;;16.20;38.00;;;;;;5026794;28;20220;-84
2021/04/02 11:13:47;;;;;;;10.50;9.57;;;16.10;37.70;;;;;;5025545;28;20240;-84
2021/04/02 11:16:13;;;;;;;10.30;9.30;;;16.30;38.00;;;;;;5029213;28;20204;-83
2021/04/02 11:18:41;;;;;;;9.97;9.17;;;16.50;38.00;;;;;;5009150;28;20190;-83
2021/04/02 11:21:07;;;;;;;10.20;9.40;;;16.90;37.20;;;;;;5030827;28;20215;-83
2021/04/02 11:23:32;;;;;;;9.50;8.67;;;17.30;36.00;;;;;;5026970;28;20193;-82
2021/04/02 11:25:58;;;;;;;11.13;9.60;;;16.50;36.50;;;;;;5026745;28;20201;-83
2021/04/02 11:28:24;;;;;;;10.70;9.70;;;16.80;36.40;;;;;;5028934;28;20219;-83
2021/04/02 11:30:50;;;;;;;9.40;8.60;;;16.90;36.10;;;;;;5009081;28;20222;-83
2021/04/02 11:33:15;;;;;;;11.37;9.43;;;17.30;35.70;;;;;;5026464;28;20191;-85
2021/04/02 11:35:41;;;;;;;10.33;9.53;;;17.30;36.40;;;;;;5028947;28;20192;-83
2021/04/02 11:38:07;;;;;;;10.83;9.83;;;17.60;35.80;;;;;;5030701;28;20183;-85
2021/04/02 11:40:34;;;;;;;10.50;9.60;;;17.30;35.80;;;;;;5033197;28;20287;-83
2021/04/02 11:42:59;;;;;;;9.97;9.07;;;17.20;35.70;;;;;;5034139;28;20195;-83
2021/04/02 11:45:26;;;;;;;9.73;8.77;;;17.40;35.70;;;;;;5043443;28;20217;-83
2021/04/02 11:47:51;;;;;;;9.77;8.90;;;17.30;35.70;;;;;;5020259;28;20248;-84
2021/04/02 11:50:17;;;;;;;10.43;9.17;;;17.40;35.70;;;;;;5032134;28;20213;-83
2021/04/02 11:52:43;;;;;;;9.23;8.50;;;17.40;34.90;;;;;;5013536;28;20186;-83
2021/04/02 11:55:10;;;;;;;9.97;9.00;;;17.50;35.30;;;;;;5029042;28;20204;-83
2021/04/02 11:57:36;;;;;;;10.23;9.43;;;17.40;35.10;;;;;;5032965;28;20223;-84
2021/04/02 12:00:05;;;;;;;10.27;9.47;;;17.40;35.70;;;;;;5015716;28;20244;-83
2021/04/02 12:02:31;;;;;;;10.57;9.57;;;17.50;36.10;;;;;;5029610;28;20231;-83
2021/04/02 12:04:56;;;;;;;11.53;9.70;;;17.30;36.50;;;;;;5028961;28;20196;-86
2021/04/02 12:07:22;;;;;;;10.57;9.67;;;17.50;36.40;;;;;;5015698;28;20684;-82
2021/04/02 12:09:48;;;;;;;10.80;9.80;;;17.80;35.80;;;;;;5025311;28;20210;-82
2021/04/02 12:12:13;;;;;;;10.33;9.43;;;18.00;34.10;;;;;;5030071;28;21559;-80
2021/04/02 12:14:39;;;;;;;9.97;9.07;;;18.20;34.00;;;;;;5030024;28;20619;-82
2021/04/02 12:17:05;;;;;;;10.43;9.47;;;18.20;33.90;;;;;;5029076;28;20606;-83
2021/04/02 12:19:30;;;;;;;10.57;9.57;;;18.10;33.60;;;;;;5034819;28;20189;-82
2021/04/02 12:21:56;;;;;;;9.77;8.97;;;18.30;33.80;;;;;;5029750;28;20243;-82
2021/04/02 12:24:22;;;;;;;10.63;8.93;;;18.40;34.10;;;;;;5009311;28;20190;-82
2021/04/02 12:26:47;;;;;;;9.57;8.83;;;18.60;33.70;;;;;;5033573;28;20201;-82
2021/04/02 12:29:13;;;;;;;9.47;8.60;;;18.40;33.20;;;;;;5031128;28;20197;-84
2021/04/02 12:31:39;;;;;;;10.53;9.33;;;18.50;33.10;;;;;;5009702;28;20223;-82
2021/04/02 12:34:04;;;;;;;10.30;9.50;;;18.40;32.80;;;;;;5034992;28;20212;-83
2021/04/02 12:36:30;;;;;;;10.33;9.33;;;18.60;32.50;;;;;;5032318;28;20288;-82
2021/04/02 12:38:55;;;;;;;10.23;9.43;;;18.40;33.00;;;;;;5033225;28;20280;-83
2021/04/02 12:41:21;;;;;;;9.70;8.90;;;18.50;33.60;;;;;;5034624;28;20273;-82
2021/04/02 12:43:47;;;;;;;10.23;9.13;;;19.00;33.40;;;;;;5037317;28;20200;-83